Xin Ou Zhou — BPKB — position and weather

sailwx.info

Track history (hours):
 
Tides and Currents Weather Stations Pressure Air Temp Water Temp Dewpoint Dewpoint Depression Visibility Wind Speed Wind Dir Waves Ship Positions

Xin Ou Zhou

Last reported at 2018-Jan-18 19:30 UTC. Time now 2018-Jan-18 19:37 UTC.
Position N 48°59' W 123°12'.

Length 335 m; draft 12.1 m.

Type: Cargo ship. MMSI: 413159000.

Date/timePositionNaut miles runAvg speedWind from/ knotsBaromVisibWave heightAir tempDewpointWater temp
2018-Jan-18 19:30N 48°59' W 123°12'1020.9
2018-Jan-18 19:00N 48°52' W 123°01'816.5
2018-Jan-18 18:30N 48°44' W 123°07'816.5
2018-Jan-18 18:00N 48°37' W 123°14'1021.0
2018-Jan-18 17:30N 48°27' W 123°10'918.1
2018-Jan-18 17:00N 48°22' W 123°21'4 8.3
2018-Jan-18 16:31N 48°19' W 123°25'4 7.6
2018-Jan-18 16:01N 48°15' W 123°27'4 7.2
2018-Jan-18 15:26N 48°13' W 123°33'4 8.3
2018-Jan-18 14:57N 48°13' W 123°39'4 9.1
2018-Jan-18 14:29N 48°14' W 123°45'4 7.9
2018-Jan-18 14:00N 48°14' W 123°51'4 8.3
2018-Jan-18 13:30N 48°14' W 123°57'4 8.6
2018-Jan-18 13:01N 48°16' W 124°03'5 8.9
2018-Jan-18 12:30N 48°18' W 124°09'510.3
2018-Jan-18 12:00N 48°20' W 124°16'611.6
2018-Jan-18 11:31N 48°22' W 124°24'611.7
2018-Jan-18 11:01N 48°25' W 124°32'510.5
2018-Jan-18 10:30N 48°27' W 124°39'510.6
2018-Jan-18 10:00N 48°28' W 124°47'610.3
2018-Jan-18 09:24N 48°28' W 124°56'410.0
2018-Jan-18 09:01N 48°27' W 125°02'510.0
2018-Jan-18 08:30N 48°23' W 125°05'510.3
2018-Jan-18 08:00N 48°18' W 125°08'610.5
2018-Jan-18 07:29N 48°13' W 125°11'510.9
2018-Jan-18 07:00N 48°08' W 125°13'2 4.2
2018-Jan-18 06:26N 48°10' W 125°14'2 3.5
2018-Jan-18 05:59N 48°09' W 125°13'8 9.3
2018-Jan-18 05:07N 48°16' W 125°19'210.7
2018-Jan-18 04:56N 48°18' W 125°20'510.6
2018-Jan-18 04:30N 48°22' W 125°21'5 9.7
2018-Jan-18 03:59N 48°27' W 125°22'510.9
2018-Jan-18 03:29N 48°32' W 125°25'510.4
2018-Jan-18 03:01N 48°37' W 125°27'611.0
2018-Jan-18 02:30N 48°40' W 125°34'511.2
2018-Jan-18 02:00N 48°44' W 125°41'510.9
2018-Jan-18 01:30N 48°47' W 125°47'510.8
2018-Jan-18 01:00N 48°50' W 125°54'1110.7
2018-Jan-18 00:00N 48°57' W 126°06'110.3
2018-Jan-17 23:57N 48°57' W 126°07'  
Track history (hours):
 
Tides and Currents Weather Stations Pressure Air Temp Water Temp Dewpoint Dewpoint Depression Visibility Wind Speed Wind Dir Waves Ship Positions

Xin Ou Zhou

Last reported at 2018-Jan-18 19:30 UTC. Time now 2018-Jan-18 19:37 UTC.
Position N 48°59' W 123°12'.

Length 335 m; draft 12.1 m.

Type: Cargo ship. MMSI: 413159000.

Date/timePositionNaut miles runAvg speedWind from/ knotsBaromVisibWave heightAir tempDewpointWater temp
2018-Jan-18 19:30N 48°59' W 123°12'1020.9
2018-Jan-18 19:00N 48°52' W 123°01'816.5
2018-Jan-18 18:30N 48°44' W 123°07'816.5
2018-Jan-18 18:00N 48°37' W 123°14'1021.0
2018-Jan-18 17:30N 48°27' W 123°10'918.1
2018-Jan-18 17:00N 48°22' W 123°21'4 8.3
2018-Jan-18 16:31N 48°19' W 123°25'4 7.6
2018-Jan-18 16:01N 48°15' W 123°27'4 7.2
2018-Jan-18 15:26N 48°13' W 123°33'4 8.3
2018-Jan-18 14:57N 48°13' W 123°39'4 9.1
2018-Jan-18 14:29N 48°14' W 123°45'4 7.9
2018-Jan-18 14:00N 48°14' W 123°51'4 8.3
2018-Jan-18 13:30N 48°14' W 123°57'4 8.6
2018-Jan-18 13:01N 48°16' W 124°03'5 8.9
2018-Jan-18 12:30N 48°18' W 124°09'510.3
2018-Jan-18 12:00N 48°20' W 124°16'611.6
2018-Jan-18 11:31N 48°22' W 124°24'611.7
2018-Jan-18 11:01N 48°25' W 124°32'510.5
2018-Jan-18 10:30N 48°27' W 124°39'510.6
2018-Jan-18 10:00N 48°28' W 124°47'610.3
2018-Jan-18 09:24N 48°28' W 124°56'410.0
2018-Jan-18 09:01N 48°27' W 125°02'510.0
2018-Jan-18 08:30N 48°23' W 125°05'510.3
2018-Jan-18 08:00N 48°18' W 125°08'610.5
2018-Jan-18 07:29N 48°13' W 125°11'510.9
2018-Jan-18 07:00N 48°08' W 125°13'2 4.2
2018-Jan-18 06:26N 48°10' W 125°14'2 3.5
2018-Jan-18 05:59N 48°09' W 125°13'8 9.3
2018-Jan-18 05:07N 48°16' W 125°19'210.7
2018-Jan-18 04:56N 48°18' W 125°20'510.6
2018-Jan-18 04:30N 48°22' W 125°21'5 9.7
2018-Jan-18 03:59N 48°27' W 125°22'510.9
2018-Jan-18 03:29N 48°32' W 125°25'510.4
2018-Jan-18 03:01N 48°37' W 125°27'611.0
2018-Jan-18 02:30N 48°40' W 125°34'511.2
2018-Jan-18 02:00N 48°44' W 125°41'510.9
2018-Jan-18 01:30N 48°47' W 125°47'510.8
2018-Jan-18 01:00N 48°50' W 125°54'1110.7
2018-Jan-18 00:00N 48°57' W 126°06'110.3
2018-Jan-17 23:57N 48°57' W 126°07'  

Dump ship's entire track history